Time;durP1;ratioP1;P1;durP2;ratioP2;P2;SDS_P1;SDS_P2;PMS_P1;PMS_P2;Temp;Humidity;BMP_temperature;BMP_pressure;BME280_temperature;BME280_humidity;BME280_pressure;Samples;Min_cycle;Max_cycle;Signal;HPM_P1;HPM_P2
2022/10/13 00:00:58;;;;;;;;;29.60;28.40;;;;;;;;5184480;28;8823;-86
2022/10/13 00:03:29;;;;;;;;;24.60;24.20;;;;;;;;5186009;28;8819;-86
2022/10/13 00:06:20;;;;;;;;;26.60;25.00;;;;;;;;5184662;28;8775;-86
2022/10/13 00:08:51;;;;;;;;;35.60;31.80;;;;;;;;5187197;28;8795;-84
2022/10/13 00:11:24;;;;;;;;;26.00;25.00;;;;;;;;5202489;28;8835;-85
2022/10/13 00:13:57;;;;;;;;;40.60;35.20;;;;;;;;5185932;28;8811;-85
2022/10/13 00:16:29;;;;;;;;;30.80;28.00;;;;;;;;5186242;28;8799;-87
2022/10/13 00:19:00;;;;;;;;;16.80;16.80;;;;;;;;5185919;28;8799;-87
2022/10/13 00:21:31;;;;;;;;;21.20;21.00;;;;;;;;5175532;28;8865;-85
2022/10/13 00:24:02;;;;;;;;;12.25;12.25;;;;;;;;5174248;28;8831;-87
2022/10/13 00:26:33;;;;;;;;;8.50;8.50;;;;;;;;5174802;28;8842;-87
2022/10/13 00:29:05;;;;;;;;;10.00;9.00;;;;;;;;5188521;28;8906;-86
2022/10/13 00:31:36;;;;;;;;;14.25;13.00;;;;;;;;5187617;28;8807;-86
2022/10/13 00:34:08;;;;;;;;;9.00;9.00;;;;;;;;5185074;28;8803;-86
2022/10/13 00:36:39;;;;;;;;;8.75;8.00;;;;;;;;5169870;28;8803;-84
2022/10/13 00:39:10;;;;;;;;;9.00;8.50;;;;;;;;5177852;28;8806;-82
2022/10/13 00:41:41;;;;;;;;;12.67;12.00;;;;;;;;5160236;28;8811;-82
2022/10/13 00:44:50;;;;;;;;;12.00;11.50;;;;;;;;5176935;28;10139;-81
2022/10/13 00:47:21;;;;;;;;;11.00;11.00;;;;;;;;5176994;28;8784;-81
2022/10/13 00:49:53;;;;;;;;;15.25;15.25;;;;;;;;5159521;28;8807;-81
2022/10/13 00:52:43;;;;;;;;;26.80;26.00;;;;;;;;5165151;28;8819;-78
2022/10/13 00:55:16;;;;;;;;;19.60;19.60;;;;;;;;5179693;28;8814;-78
2022/10/13 00:57:53;;;;;;;;;19.40;18.60;;;;;;;;5153094;28;8811;-78
2022/10/13 01:00:47;;;;;;;;;32.00;30.80;;;;;;;;5168150;28;8937;-78
2022/10/13 01:03:37;;;;;;;;;19.40;19.40;;;;;;;;5174967;28;8910;-79
2022/10/13 01:06:09;;;;;;;;;20.60;20.60;;;;;;;;5138993;28;8803;-78
2022/10/13 01:08:40;;;;;;;;;37.60;35.40;;;;;;;;5157173;28;8804;-79
2022/10/13 01:11:30;;;;;;;;;19.00;18.20;;;;;;;;5172453;28;8818;-79
2022/10/13 01:14:04;;;;;;;;;15.50;15.50;;;;;;;;5167068;28;8892;-78
2022/10/13 01:16:56;;;;;;;;;9.25;9.25;;;;;;;;5163739;28;8768;-79
2022/10/13 01:19:30;;;;;;;;;11.50;11.50;;;;;;;;5163253;28;8803;-77
2022/10/13 01:22:05;;;;;;;;;8.00;8.00;;;;;;;;5162714;28;9548;-78
2022/10/13 01:24:39;;;;;;;;;12.50;11.00;;;;;;;;5162996;28;9568;-79
2022/10/13 01:27:29;;;;;;;;;10.50;9.25;;;;;;;;5147431;28;8790;-80
2022/10/13 01:30:04;;;;;;;;;6.33;6.33;;;;;;;;5147038;28;8799;-75
2022/10/13 01:32:56;;;;;;;;;10.00;10.00;;;;;;;;5164170;28;9518;-75
2022/10/13 01:35:31;;;;;;;;;10.25;10.25;;;;;;;;5163020;28;8795;-75
2022/10/13 01:38:05;;;;;;;;;8.75;8.75;;;;;;;;5146748;28;8807;-76
2022/10/13 01:40:49;;;;;;;;;10.50;10.50;;;;;;;;5146915;28;8798;-77
2022/10/13 01:43:35;;;;;;;;;12.00;12.00;;;;;;;;5162793;28;8934;-76
2022/10/13 01:46:10;;;;;;;;;13.50;13.50;;;;;;;;5150980;28;8799;-76
2022/10/13 01:48:44;;;;;;;;;19.00;18.80;;;;;;;;5150781;28;8806;-76
2022/10/13 01:51:17;;;;;;;;;14.75;14.75;;;;;;;;5167062;28;8799;-76
2022/10/13 01:53:48;;;;;;;;;10.60;10.60;;;;;;;;5183083;28;8821;-76
2022/10/13 01:56:19;;;;;;;;;13.25;13.25;;;;;;;;5150541;28;8823;-76
2022/10/13 01:58:52;;;;;;;;;10.75;10.50;;;;;;;;5166551;28;8811;-78
2022/10/13 02:01:29;;;;;;;;;12.50;11.25;;;;;;;;5166745;28;8799;-77
2022/10/13 02:04:06;;;;;;;;;13.00;13.00;;;;;;;;5166791;28;8807;-76
2022/10/13 02:07:14;;;;;;;;;15.50;15.25;;;;;;;;5153034;28;8784;-76
2022/10/13 02:10:04;;;;;;;;;9.75;9.25;;;;;;;;5182790;28;8795;-75
2022/10/13 02:12:38;;;;;;;;;13.00;13.00;;;;;;;;5150920;28;8834;-79
2022/10/13 02:15:11;;;;;;;;;15.40;15.20;;;;;;;;5150962;28;8795;-80
2022/10/13 02:17:46;;;;;;;;;31.20;29.80;;;;;;;;5166663;28;8795;-81
2022/10/13 02:20:36;;;;;;;;;35.20;31.80;;;;;;;;5167389;28;8931;-80
2022/10/13 02:23:10;;;;;;;;;22.80;21.20;;;;;;;;5158903;28;8807;-80
2022/10/13 02:25:42;;;;;;;;;19.00;18.40;;;;;;;;5180685;28;8810;-83
2022/10/13 02:28:14;;;;;;;;;19.40;19.40;;;;;;;;5183111;28;8787;-86
2022/10/13 02:30:48;;;;;;;;;18.50;18.50;;;;;;;;5171362;28;8784;-85
2022/10/13 02:33:19;;;;;;;;;15.60;15.60;;;;;;;;5182564;28;8835;-75
2022/10/13 02:35:50;;;;;;;;;19.20;18.80;;;;;;;;5166145;28;8858;-76
2022/10/13 02:38:21;;;;;;;;;14.20;14.20;;;;;;;;5149477;28;8803;-77
2022/10/13 02:40:53;;;;;;;;;29.00;28.80;;;;;;;;5182366;28;8861;-78
2022/10/13 02:43:25;;;;;;;;;8.60;8.40;;;;;;;;5165685;28;8816;-76
2022/10/13 02:45:56;;;;;;;;;16.50;16.50;;;;;;;;5182519;28;8838;-78
2022/10/13 02:48:27;;;;;;;;;13.75;13.75;;;;;;;;5166027;28;8959;-76
2022/10/13 02:50:59;;;;;;;;;13.75;13.75;;;;;;;;5182861;28;8814;-80
2022/10/13 02:53:30;;;;;;;;;11.25;11.25;;;;;;;;5149113;28;8851;-81
2022/10/13 02:56:01;;;;;;;;;12.25;11.50;;;;;;;;5148245;28;8913;-82
2022/10/13 02:58:35;;;;;;;;;7.75;7.75;;;;;;;;5164278;28;8807;-77
2022/10/13 03:01:07;;;;;;;;;8.00;8.00;;;;;;;;5165703;28;8819;-81
2022/10/13 03:03:38;;;;;;;;;9.75;9.75;;;;;;;;5165382;28;8870;-80
2022/10/13 03:06:09;;;;;;;;;10.00;10.00;;;;;;;;5149428;28;9543;-78
2022/10/13 03:08:59;;;;;;;;;9.75;9.75;;;;;;;;5178048;28;8835;-76
2022/10/13 03:11:49;;;;;;;;;14.50;14.50;;;;;;;;5144860;28;8841;-76
2022/10/13 03:14:20;;;;;;;;;12.80;12.80;;;;;;;;5161270;28;8801;-78
2022/10/13 03:16:52;;;;;;;;;10.75;10.50;;;;;;;;5161296;28;8798;-75
2022/10/13 03:19:41;;;;;;;;;13.00;13.00;;;;;;;;5165647;28;8866;-73
2022/10/13 03:22:16;;;;;;;;;31.20;31.00;;;;;;;;5165921;28;8831;-74
2022/10/13 03:24:48;;;;;;;;;30.80;29.60;;;;;;;;5148294;28;8775;-78
2022/10/13 03:27:19;;;;;;;;;29.00;28.40;;;;;;;;5181169;28;8787;-76
2022/10/13 03:29:50;;;;;;;;;12.00;12.00;;;;;;;;5148840;28;8822;-75
2022/10/13 03:32:22;;;;;;;;;23.00;22.40;;;;;;;;5164745;28;8961;-75
2022/10/13 03:34:53;;;;;;;;;24.00;20.20;;;;;;;;5181375;28;8898;-74
2022/10/13 03:37:25;;;;;;;;;54.40;43.20;;;;;;;;5164672;28;8795;-81
2022/10/13 03:39:56;;;;;;;;;39.60;36.60;;;;;;;;5164958;28;8815;-76
2022/10/13 03:42:27;;;;;;;;;32.20;31.40;;;;;;;;5164796;28;8799;-76
2022/10/13 03:44:58;;;;;;;;;23.00;21.60;;;;;;;;5165323;28;8787;-77
2022/10/13 03:47:48;;;;;;;;;27.60;25.60;;;;;;;;5150942;28;8787;-79
2022/10/13 03:50:19;;;;;;;;;31.00;30.20;;;;;;;;5183637;28;8858;-75
2022/10/13 03:52:50;;;;;;;;;30.80;29.80;;;;;;;;5183748;28;8932;-75
2022/10/13 03:55:39;;;;;;;;;31.80;31.80;;;;;;;;5172128;28;8817;-79
2022/10/13 03:58:10;;;;;;;;;31.80;30.20;;;;;;;;5164328;28;8854;-77
2022/10/13 04:00:41;;;;;;;;;38.00;34.60;;;;;;;;5164092;28;8851;-80
2022/10/13 04:03:13;;;;;;;;;35.60;33.80;;;;;;;;5180214;28;9533;-76
2022/10/13 04:05:44;;;;;;;;;32.00;30.80;;;;;;;;5164052;28;8788;-75
2022/10/13 04:08:16;;;;;;;;;26.40;24.80;;;;;;;;5146612;28;8813;-76
2022/10/13 04:10:47;;;;;;;;;28.80;28.00;;;;;;;;5163077;28;8814;-76
2022/10/13 04:13:18;;;;;;;;;66.40;54.00;;;;;;;;5147776;28;8819;-75
2022/10/13 04:15:52;;;;;;;;;42.40;36.80;;;;;;;;5163297;28;8823;-75
2022/10/13 04:18:23;;;;;;;;;16.00;15.60;;;;;;;;5173520;28;9415;-75
2022/10/13 04:20:54;;;;;;;;;10.25;9.25;;;;;;;;5180100;28;8823;-75
2022/10/13 04:23:25;;;;;;;;;12.00;12.00;;;;;;;;5162679;28;8811;-77
2022/10/13 04:25:56;;;;;;;;;10.75;10.75;;;;;;;;5147225;28;8961;-75
2022/10/13 04:28:28;;;;;;;;;52.00;43.20;;;;;;;;5145677;28;8827;-75
2022/10/13 04:31:00;;;;;;;;;68.20;52.80;;;;;;;;5161597;28;8827;-74
2022/10/13 04:33:32;;;;;;;;;15.40;15.40;;;;;;;;5161175;28;8839;-76
2022/10/13 04:36:04;;;;;;;;;5.50;5.50;;;;;;;;5162334;28;9546;-75
2022/10/13 04:38:35;;;;;;;;;12.50;12.25;;;;;;;;5162150;28;8811;-77
2022/10/13 04:41:07;;;;;;;;;11.75;11.75;;;;;;;;5146428;28;8842;-77
2022/10/13 04:43:38;;;;;;;;;13.25;13.25;;;;;;;;5163195;28;8815;-85
2022/10/13 04:46:12;;;;;;;;;23.20;22.20;;;;;;;;5163138;28;8915;-82
2022/10/13 04:48:43;;;;;;;;;33.00;32.60;;;;;;;;5158739;28;8831;-80
2022/10/13 04:51:19;;;;;;;;;62.40;49.40;;;;;;;;5165595;28;8811;-75
2022/10/13 04:54:05;;;;;;;;;44.00;38.20;;;;;;;;5147775;28;8821;-76
2022/10/13 04:56:37;;;;;;;;;56.40;46.20;;;;;;;;5146128;28;8815;-72
2022/10/13 04:59:08;;;;;;;;;44.80;36.00;;;;;;;;5145993;28;8817;-73
2022/10/13 05:01:39;;;;;;;;;46.80;37.80;;;;;;;;5178620;28;9084;-74
2022/10/13 05:04:14;;;;;;;;;26.00;26.00;;;;;;;;5146398;28;8803;-78
2022/10/13 05:06:45;;;;;;;;;16.80;16.80;;;;;;;;5178885;28;8795;-76
2022/10/13 05:09:17;;;;;;;;;26.80;26.80;;;;;;;;5162612;28;8791;-75
2022/10/13 05:11:48;;;;;;;;;20.40;19.80;;;;;;;;5162607;28;8826;-73
2022/10/13 05:14:20;;;;;;;;;39.80;36.00;;;;;;;;5153576;28;8807;-73
2022/10/13 05:17:09;;;;;;;;;37.60;35.60;;;;;;;;5162625;28;8783;-74
2022/10/13 05:19:40;;;;;;;;;37.00;35.20;;;;;;;;5146026;28;8827;-78
2022/10/13 05:22:12;;;;;;;;;24.60;24.60;;;;;;;;5162382;28;8787;-78
2022/10/13 05:24:45;;;;;;;;;45.80;38.40;;;;;;;;5143867;28;8834;-74
2022/10/13 05:27:35;;;;;;;;;47.00;39.20;;;;;;;;5157145;28;8838;-73
2022/10/13 05:30:09;;;;;;;;;46.60;38.40;;;;;;;;5166233;28;8801;-75
2022/10/13 05:32:40;;;;;;;;;44.60;38.60;;;;;;;;5161165;28;9550;-74
2022/10/13 05:35:30;;;;;;;;;53.40;44.60;;;;;;;;5147485;28;8819;-77
2022/10/13 05:38:02;;;;;;;;;57.40;47.20;;;;;;;;5144085;28;8910;-75
2022/10/13 05:40:33;;;;;;;;;56.40;44.40;;;;;;;;5160696;28;8812;-75
2022/10/13 05:43:04;;;;;;;;;64.20;51.80;;;;;;;;5177575;28;8796;-78
2022/10/13 05:45:35;;;;;;;;;60.00;48.40;;;;;;;;5147775;28;8825;-78
2022/10/13 05:48:06;;;;;;;;;53.80;42.80;;;;;;;;5157174;28;8782;-78
2022/10/13 05:50:38;;;;;;;;;68.60;52.80;;;;;;;;5156924;28;8809;-82
2022/10/13 05:53:09;;;;;;;;;56.00;46.80;;;;;;;;5140878;28;9688;-77
2022/10/13 05:55:41;;;;;;;;;53.00;43.20;;;;;;;;5150278;28;8846;-82
2022/10/13 05:58:12;;;;;;;;;61.40;48.00;;;;;;;;5170273;28;8838;-79
2022/10/13 06:00:43;;;;;;;;;38.80;34.20;;;;;;;;5159710;28;8830;-81
2022/10/13 06:03:16;;;;;;;;;29.60;29.20;;;;;;;;5160901;28;8807;-82
2022/10/13 06:05:48;;;;;;;;;38.20;35.80;;;;;;;;5160811;28;8853;-80
2022/10/13 06:08:19;;;;;;;;;29.80;28.80;;;;;;;;5144841;28;8858;-77
2022/10/13 06:10:51;;;;;;;;;52.20;43.40;;;;;;;;5160965;28;9546;-75
2022/10/13 06:13:22;;;;;;;;;58.20;48.40;;;;;;;;5128033;28;8965;-75
2022/10/13 06:15:53;;;;;;;;;40.00;36.60;;;;;;;;5160406;28;8810;-75
2022/10/13 06:18:24;;;;;;;;;36.80;34.60;;;;;;;;5160632;28;8815;-72
2022/10/13 06:20:56;;;;;;;;;42.20;37.80;;;;;;;;5160613;28;8799;-69
2022/10/13 06:23:47;;;;;;;;;43.40;37.80;;;;;;;;5160472;28;8857;-82
2022/10/13 06:26:20;;;;;;;;;26.80;26.40;;;;;;;;5139071;28;8834;-76
2022/10/13 06:28:52;;;;;;;;;46.00;39.20;;;;;;;;5175162;28;9592;-72
2022/10/13 06:31:23;;;;;;;;;31.00;31.00;;;;;;;;5160309;28;8830;-74
2022/10/13 06:34:13;;;;;;;;;23.00;23.00;;;;;;;;5175693;28;8819;-74
2022/10/13 06:36:48;;;;;;;;;11.50;10.50;;;;;;;;5179813;28;8938;-71
2022/10/13 06:39:19;;;;;;;;;23.00;22.00;;;;;;;;5164936;28;8815;-73
2022/10/13 06:41:51;;;;;;;;;30.40;29.60;;;;;;;;5147464;28;8846;-72
2022/10/13 06:44:22;;;;;;;;;22.75;22.75;;;;;;;;5147070;28;8815;-72
2022/10/13 06:46:53;;;;;;;;;35.80;34.40;;;;;;;;5162950;28;8838;-73
2022/10/13 06:49:43;;;;;;;;;28.25;28.25;;;;;;;;5164766;28;9538;-72
2022/10/13 06:52:16;;;;;;;;;36.20;34.80;;;;;;;;5164067;28;9570;-71
2022/10/13 06:54:48;;;;;;;;;20.50;20.25;;;;;;;;5151371;28;8832;-73
2022/10/13 06:57:19;;;;;;;;;36.40;35.00;;;;;;;;5154442;28;8805;-74
2022/10/13 06:59:51;;;;;;;;;32.40;31.60;;;;;;;;5161971;28;8831;-80
2022/10/13 07:02:23;;;;;;;;;38.80;35.20;;;;;;;;5177538;28;8807;-76
2022/10/13 07:04:54;;;;;;;;;24.40;24.40;;;;;;;;5144949;28;8790;-76
2022/10/13 07:07:44;;;;;;;;;41.60;35.80;;;;;;;;5162884;28;8909;-72
2022/10/13 07:10:16;;;;;;;;;40.60;36.20;;;;;;;;5163011;28;8889;-78
2022/10/13 07:12:48;;;;;;;;;49.80;41.60;;;;;;;;5161952;28;8897;-76
2022/10/13 07:15:20;;;;;;;;;48.80;42.20;;;;;;;;5179357;28;8827;-76
2022/10/13 07:18:10;;;;;;;;;44.40;37.60;;;;;;;;5169852;28;8845;-76
2022/10/13 07:20:42;;;;;;;;;48.40;41.00;;;;;;;;5188249;28;8803;-74
2022/10/13 07:23:13;;;;;;;;;40.20;36.00;;;;;;;;5165168;28;8842;-75
2022/10/13 07:25:44;;;;;;;;;48.60;38.60;;;;;;;;5163779;28;8811;-74
2022/10/13 07:28:15;;;;;;;;;48.20;41.60;;;;;;;;5142298;28;8815;-76
2022/10/13 07:30:49;;;;;;;;;52.00;44.00;;;;;;;;5179543;28;8811;-76
2022/10/13 07:33:20;;;;;;;;;56.60;46.60;;;;;;;;5162764;28;8811;-75
2022/10/13 07:36:10;;;;;;;;;41.40;37.80;;;;;;;;5163156;28;8804;-77
2022/10/13 07:38:42;;;;;;;;;45.80;38.80;;;;;;;;5161995;28;8827;-76
2022/10/13 07:41:14;;;;;;;;;41.40;36.60;;;;;;;;5163929;28;8811;-75
2022/10/13 07:43:46;;;;;;;;;49.40;41.60;;;;;;;;5164238;28;8869;-75
2022/10/13 07:46:17;;;;;;;;;53.20;43.80;;;;;;;;5165612;28;8970;-75
2022/10/13 07:48:48;;;;;;;;;54.00;45.00;;;;;;;;5147972;28;8798;-75
2022/10/13 07:51:38;;;;;;;;;63.00;50.80;;;;;;;;5178276;28;8896;-74
2022/10/13 07:54:09;;;;;;;;;22.20;22.20;;;;;;;;5147407;28;8780;-73
2022/10/13 07:56:59;;;;;;;;;47.60;40.80;;;;;;;;5144519;28;8802;-76
2022/10/13 07:59:33;;;;;;;;;22.60;22.60;;;;;;;;5157494;28;8865;-77
2022/10/13 08:02:05;;;;;;;;;13.60;13.60;;;;;;;;5145222;28;9558;-72
2022/10/13 08:04:36;;;;;;;;;20.50;20.00;;;;;;;;5177653;28;9622;-75
2022/10/13 08:07:07;;;;;;;;;25.00;25.00;;;;;;;;5163536;28;8795;-74
2022/10/13 08:09:38;;;;;;;;;29.40;29.40;;;;;;;;5161692;28;8799;-77
2022/10/13 08:12:09;;;;;;;;;12.25;12.25;;;;;;;;5145534;28;8834;-73
2022/10/13 08:14:40;;;;;;;;;27.00;27.00;;;;;;;;5152320;28;8802;-73
2022/10/13 08:17:12;;;;;;;;;13.50;13.50;;;;;;;;5147315;28;8775;-72
2022/10/13 08:19:42;;;;;;;;;13.60;13.00;;;;;;;;5145824;28;8818;-76
2022/10/13 08:22:13;;;;;;;;;16.00;16.00;;;;;;;;5147529;28;8856;-74
2022/10/13 08:24:45;;;;;;;;;18.80;18.20;;;;;;;;5147446;28;8819;-75
2022/10/13 08:27:34;;;;;;;;;10.25;10.25;;;;;;;;5161510;28;8826;-76
2022/10/13 08:30:05;;;;;;;;;13.00;13.00;;;;;;;;5142384;28;8818;-74
2022/10/13 08:32:54;;;;;;;;;42.40;36.40;;;;;;;;5156379;28;8841;-74
2022/10/13 08:35:25;;;;;;;;;9.00;9.00;;;;;;;;5142873;28;8812;-74
2022/10/13 08:37:56;;;;;;;;;13.00;13.00;;;;;;;;5142927;28;11581;-73
2022/10/13 08:40:28;;;;;;;;;41.60;36.20;;;;;;;;5142978;28;8852;-75
2022/10/13 08:42:59;;;;;;;;;40.80;36.00;;;;;;;;5141497;28;8884;-74
2022/10/13 08:45:30;;;;;;;;;61.60;50.20;;;;;;;;5143152;28;8802;-74
2022/10/13 08:48:04;;;;;;;;;92.00;82.00;;;;;;;;5143156;28;9551;-74
2022/10/13 08:50:38;;;;;;;;;50.40;42.00;;;;;;;;5143520;28;8794;-74
2022/10/13 08:53:29;;;;;;;;;87.40;74.00;;;;;;;;5143936;28;8806;-76
2022/10/13 08:56:08;;;;;;;;;37.00;34.00;;;;;;;;5159799;28;8798;-76
2022/10/13 08:58:41;;;;;;;;;32.40;31.60;;;;;;;;5143251;28;8948;-76
2022/10/13 09:01:16;;;;;;;;;11.80;11.80;;;;;;;;5159465;28;8817;-78
2022/10/13 09:03:51;;;;;;;;;24.20;24.00;;;;;;;;5159275;28;8801;-77
2022/10/13 09:06:27;;;;;;;;;12.00;12.00;;;;;;;;5143154;28;8935;-77
2022/10/13 09:09:02;;;;;;;;;14.20;13.60;;;;;;;;5144338;28;8790;-79
2022/10/13 09:11:35;;;;;;;;;5.00;5.00;;;;;;;;5143108;28;8929;-75
2022/10/13 09:14:36;;;;;;;;;12.75;12.00;;;;;;;;5142878;28;8841;-77
2022/10/13 09:17:25;;;;;;;;;15.75;15.75;;;;;;;;5158719;28;8956;-77
2022/10/13 09:20:01;;;;;;;;;8.00;8.00;;;;;;;;5144065;28;8810;-77
2022/10/13 09:22:33;;;;;;;;;10.50;10.50;;;;;;;;5142886;28;8797;-78
2022/10/13 09:25:10;;;;;;;;;13.25;13.25;;;;;;;;5142585;28;8810;-77
2022/10/13 09:28:00;;;;;;;;;8.25;8.25;;;;;;;;5157261;28;8841;-80
2022/10/13 09:30:45;;;;;;;;;15.75;15.75;;;;;;;;5142733;28;8841;-77
2022/10/13 09:33:23;;;;;;;;;9.25;7.75;;;;;;;;5142631;28;8842;-76
2022/10/13 09:36:05;;;;;;;;;7.75;7.75;;;;;;;;5139965;28;8844;-75
2022/10/13 09:38:36;;;;;;;;;9.25;9.25;;;;;;;;5124901;28;8794;-74
2022/10/13 09:41:07;;;;;;;;;7.50;7.50;;;;;;;;5142285;28;8802;-74
2022/10/13 09:43:45;;;;;;;;;6.75;6.75;;;;;;;;5140810;28;8880;-74
2022/10/13 09:46:26;;;;;;;;;12.75;12.75;;;;;;;;5144915;28;9406;-76
2022/10/13 09:49:17;;;;;;;;;14.00;14.00;;;;;;;;5140695;28;8790;-75
2022/10/13 09:51:48;;;;;;;;;15.80;15.80;;;;;;;;5140259;28;8878;-75
2022/10/13 09:54:25;;;;;;;;;11.50;11.50;;;;;;;;5144815;28;8827;-69
2022/10/13 09:56:59;;;;;;;;;12.00;12.00;;;;;;;;5156836;28;8771;-72
2022/10/13 09:59:34;;;;;;;;;17.00;17.00;;;;;;;;5161729;28;8846;-70
2022/10/13 10:02:23;;;;;;;;;27.60;27.60;;;;;;;;5160378;28;8823;-70
2022/10/13 10:04:57;;;;;;;;;19.25;19.25;;;;;;;;5162988;28;8862;-70
2022/10/13 10:07:31;;;;;;;;;13.50;13.50;;;;;;;;5165891;28;8791;-72
2022/10/13 10:10:04;;;;;;;;;16.75;16.75;;;;;;;;5165287;28;8815;-71
2022/10/13 10:12:39;;;;;;;;;10.75;10.75;;;;;;;;5164595;28;8839;-77
2022/10/13 10:15:20;;;;;;;;;13.75;13.75;;;;;;;;5165189;28;8830;-74
2022/10/13 10:17:59;;;;;;;;;13.50;13.50;;;;;;;;5130455;28;8841;-71
2022/10/13 10:20:41;;;;;;;;;16.00;16.00;;;;;;;;5146334;28;9533;-66
2022/10/13 10:23:21;;;;;;;;;16.20;16.20;;;;;;;;5143732;28;8881;-70
2022/10/13 10:26:01;;;;;;;;;15.50;15.50;;;;;;;;5163744;28;8803;-69
2022/10/13 10:28:38;;;;;;;;;13.00;13.00;;;;;;;;5162975;28;8845;-70
2022/10/13 10:31:30;;;;;;;;;15.50;14.75;;;;;;;;5171219;28;8815;-70
2022/10/13 10:34:20;;;;;;;;;10.20;10.20;;;;;;;;5164135;28;8834;-73
2022/10/13 10:36:54;;;;;;;;;10.00;10.00;;;;;;;;5156350;28;8830;-75
2022/10/13 10:39:31;;;;;;;;;21.60;20.20;;;;;;;;5151696;28;8863;-72
2022/10/13 10:42:01;;;;;;;;;16.00;16.00;;;;;;;;5164912;28;8838;-73
2022/10/13 10:44:38;;;;;;;;;52.25;44.00;;;;;;;;5149182;28;8828;-73
2022/10/13 10:47:18;;;;;;;;;9.60;9.60;;;;;;;;5164935;28;12271;-71
2022/10/13 10:49:52;;;;;;;;;15.00;15.00;;;;;;;;5163556;28;8908;-72
2022/10/13 10:52:28;;;;;;;;;13.75;13.75;;;;;;;;5165969;28;8831;-72
2022/10/13 10:55:05;;;;;;;;;18.60;17.40;;;;;;;;5164676;28;8818;-71
2022/10/13 10:57:50;;;;;;;;;8.75;8.75;;;;;;;;5148983;28;8788;-72
2022/10/13 11:00:22;;;;;;;;;90.60;75.00;;;;;;;;5165771;28;8834;-70
2022/10/13 11:02:56;;;;;;;;;8.25;8.25;;;;;;;;5181961;28;8795;-69
2022/10/13 11:05:50;;;;;;;;;12.25;12.25;;;;;;;;5166053;28;8822;-71
2022/10/13 11:08:25;;;;;;;;;19.20;19.00;;;;;;;;5156545;28;8831;-72
2022/10/13 11:11:16;;;;;;;;;7.25;7.25;;;;;;;;5171915;28;8811;-72
2022/10/13 11:13:56;;;;;;;;;8.25;8.25;;;;;;;;5156460;28;8835;-71
2022/10/13 11:16:27;;;;;;;;;11.00;11.00;;;;;;;;5165372;28;8805;-71
2022/10/13 11:19:06;;;;;;;;;11.33;11.33;;;;;;;;5166719;28;9507;-71
2022/10/13 11:21:53;;;;;;;;;15.00;15.00;;;;;;;;5165165;28;11524;-70
2022/10/13 11:24:33;;;;;;;;;17.25;17.25;;;;;;;;5163445;28;8792;-71
2022/10/13 11:27:07;;;;;;;;;21.00;21.00;;;;;;;;5163675;28;8834;-70
2022/10/13 11:29:56;;;;;;;;;22.00;21.50;;;;;;;;5159220;28;8799;-71
2022/10/13 11:32:40;;;;;;;;;17.00;17.00;;;;;;;;5163174;28;9530;-73
2022/10/13 11:35:25;;;;;;;;;17.80;17.80;;;;;;;;5146893;28;8803;-71
2022/10/13 11:37:56;;;;;;;;;18.40;17.80;;;;;;;;5160726;28;8779;-73
2022/10/13 11:40:27;;;;;;;;;21.75;21.75;;;;;;;;5131065;28;8780;-70
2022/10/13 11:43:23;;;;;;;;;21.75;21.75;;;;;;;;5130691;28;8807;-72
2022/10/13 11:45:57;;;;;;;;;32.00;31.60;;;;;;;;5179262;28;9545;-70
2022/10/13 11:48:40;;;;;;;;;43.00;38.40;;;;;;;;5146745;28;8780;-71
2022/10/13 11:51:15;;;;;;;;;24.20;24.20;;;;;;;;5145536;28;8901;-73
2022/10/13 11:53:55;;;;;;;;;26.60;25.80;;;;;;;;5164205;28;8846;-72
2022/10/13 11:56:34;;;;;;;;;15.00;15.00;;;;;;;;5163476;28;8803;-73
2022/10/13 11:59:17;;;;;;;;;16.50;16.50;;;;;;;;5164751;28;8811;-73
2022/10/13 12:01:55;;;;;;;;;15.20;15.20;;;;;;;;5164370;28;8803;-73
2022/10/13 12:04:27;;;;;;;;;19.40;18.20;;;;;;;;5163183;28;8914;-72
2022/10/13 12:07:01;;;;;;;;;23.00;23.00;;;;;;;;5145879;28;8962;-73
2022/10/13 12:09:35;;;;;;;;;25.60;25.60;;;;;;;;5161739;28;8843;-73
2022/10/13 12:12:17;;;;;;;;;18.40;18.40;;;;;;;;5160014;28;8865;-72
2022/10/13 12:14:50;;;;;;;;;30.20;29.20;;;;;;;;5161529;28;9554;-74
2022/10/13 12:17:25;;;;;;;;;35.80;34.60;;;;;;;;5164009;28;8818;-71
2022/10/13 12:19:57;;;;;;;;;40.80;35.60;;;;;;;;5146329;28;8792;-72
2022/10/13 12:22:29;;;;;;;;;29.60;29.40;;;;;;;;5157190;28;8819;-72
2022/10/13 12:25:01;;;;;;;;;35.80;32.80;;;;;;;;5173843;28;8822;-72
2022/10/13 12:27:53;;;;;;;;;32.00;32.00;;;;;;;;5159378;28;8835;-71
2022/10/13 12:30:26;;;;;;;;;38.60;33.80;;;;;;;;5160212;28;8791;-71
2022/10/13 12:33:36;;;;;;;;;37.80;35.00;;;;;;;;5162024;28;9567;-71
2022/10/13 12:36:15;;;;;;;;;66.20;51.60;;;;;;;;5162122;28;8780;-72
2022/10/13 12:38:50;;;;;;;;;42.00;38.60;;;;;;;;5162695;28;9499;-73
2022/10/13 12:41:24;;;;;;;;;44.60;37.20;;;;;;;;5145026;28;8791;-73
2022/10/13 12:43:55;;;;;;;;;44.00;38.20;;;;;;;;5145053;28;8896;-71
2022/10/13 12:46:38;;;;;;;;;31.20;31.20;;;;;;;;5146066;28;8873;-72
2022/10/13 12:49:27;;;;;;;;;57.40;48.20;;;;;;;;5161427;28;8909;-72
2022/10/13 12:52:13;;;;;;;;;51.75;43.25;;;;;;;;5176750;28;9562;-73
2022/10/13 12:54:49;;;;;;;;;45.40;40.00;;;;;;;;5141378;28;10464;-71
2022/10/13 12:57:25;;;;;;;;;65.20;53.80;;;;;;;;5147795;28;8811;-72
2022/10/13 12:59:56;;;;;;;;;28.80;28.80;;;;;;;;5165084;28;8897;-72
2022/10/13 13:02:30;;;;;;;;;31.75;31.00;;;;;;;;5147488;28;9538;-72
2022/10/13 13:05:01;;;;;;;;;33.20;32.80;;;;;;;;5140680;28;8812;-73
2022/10/13 13:07:35;;;;;;;;;23.60;23.60;;;;;;;;5145517;28;8826;-73
2022/10/13 13:10:06;;;;;;;;;27.00;26.40;;;;;;;;5162669;28;9507;-72
2022/10/13 13:12:38;;;;;;;;;30.50;29.75;;;;;;;;5148767;28;8822;-72
2022/10/13 13:15:19;;;;;;;;;30.80;30.80;;;;;;;;5158303;28;11545;-72
2022/10/13 13:17:51;;;;;;;;;37.80;36.20;;;;;;;;5175219;28;8811;-70
2022/10/13 13:20:32;;;;;;;;;36.40;33.40;;;;;;;;5178762;28;8969;-72
2022/10/13 13:23:04;;;;;;;;;29.60;28.80;;;;;;;;5162505;28;8819;-70
2022/10/13 13:25:35;;;;;;;;;33.60;33.00;;;;;;;;5145406;28;8803;-70
2022/10/13 13:28:09;;;;;;;;;41.00;36.00;;;;;;;;5163162;28;8783;-70
2022/10/13 13:30:40;;;;;;;;;34.00;33.20;;;;;;;;5161784;28;8822;-71
2022/10/13 13:33:11;;;;;;;;;49.40;41.00;;;;;;;;5138963;28;8954;-69
2022/10/13 13:35:42;;;;;;;;;41.25;37.00;;;;;;;;5163783;28;8950;-70
2022/10/13 13:38:13;;;;;;;;;61.50;50.25;;;;;;;;5146431;28;9548;-75
2022/10/13 13:40:44;;;;;;;;;55.20;46.80;;;;;;;;5136294;28;8865;-76
2022/10/13 13:43:16;;;;;;;;;53.60;44.20;;;;;;;;5166017;28;8799;-76
2022/10/13 13:45:47;;;;;;;;;41.60;38.40;;;;;;;;5149791;28;8838;-73
2022/10/13 13:48:18;;;;;;;;;45.00;38.60;;;;;;;;5182967;28;8803;-77
2022/10/13 13:50:49;;;;;;;;;25.75;25.75;;;;;;;;5164794;28;8876;-75
2022/10/13 13:53:20;;;;;;;;;34.20;30.60;;;;;;;;5148921;28;9509;-72
2022/10/13 13:55:51;;;;;;;;;35.80;33.60;;;;;;;;5165162;28;8799;-75
2022/10/13 13:58:22;;;;;;;;;38.40;36.40;;;;;;;;5149687;28;8905;-73
2022/10/13 14:00:53;;;;;;;;;40.00;37.20;;;;;;;;5148954;28;8823;-73
2022/10/13 14:03:43;;;;;;;;;37.40;34.60;;;;;;;;5152617;28;8922;-73
2022/10/13 14:06:18;;;;;;;;;36.80;35.40;;;;;;;;5181867;28;8787;-74
2022/10/13 14:08:49;;;;;;;;;36.20;34.40;;;;;;;;5165934;28;8838;-72
2022/10/13 14:11:21;;;;;;;;;54.20;46.40;;;;;;;;5149836;28;8816;-73
2022/10/13 14:13:52;;;;;;;;;28.60;28.60;;;;;;;;5165894;28;8846;-76
2022/10/13 14:16:31;;;;;;;;;14.80;14.60;;;;;;;;5135487;28;8795;-75
2022/10/13 14:19:03;;;;;;;;;6.25;6.25;;;;;;;;5167373;28;8821;-74
2022/10/13 14:21:35;;;;;;;;;14.40;14.40;;;;;;;;5149730;28;8930;-75
2022/10/13 14:24:10;;;;;;;;;20.00;19.20;;;;;;;;5149937;28;8807;-76
2022/10/13 14:26:41;;;;;;;;;20.60;20.20;;;;;;;;5182333;28;8807;-75
2022/10/13 14:29:12;;;;;;;;;24.80;23.80;;;;;;;;5182341;28;9498;-78
2022/10/13 14:31:43;;;;;;;;;26.80;26.00;;;;;;;;5182027;28;8835;-77
2022/10/13 14:34:32;;;;;;;;;25.80;25.00;;;;;;;;5165736;28;8953;-75
2022/10/13 14:37:03;;;;;;;;;19.00;18.25;;;;;;;;5149691;28;8915;-74
2022/10/13 14:39:34;;;;;;;;;22.20;22.20;;;;;;;;5149519;28;11256;-76
2022/10/13 14:42:05;;;;;;;;;21.25;21.25;;;;;;;;5149269;28;8811;-77
2022/10/13 14:44:36;;;;;;;;;29.00;29.00;;;;;;;;5149777;28;10329;-76
2022/10/13 14:47:10;;;;;;;;;20.80;20.80;;;;;;;;5149328;28;8826;-76
2022/10/13 14:49:41;;;;;;;;;23.00;22.00;;;;;;;;5149544;28;8784;-75
2022/10/13 14:52:12;;;;;;;;;29.00;28.80;;;;;;;;5164332;28;8859;-76
2022/10/13 14:54:43;;;;;;;;;22.80;21.20;;;;;;;;5164619;28;9593;-74
2022/10/13 14:57:33;;;;;;;;;20.00;20.00;;;;;;;;5165003;28;8878;-75
2022/10/13 15:00:04;;;;;;;;;10.00;9.00;;;;;;;;5165288;28;8826;-75
2022/10/13 15:02:35;;;;;;;;;21.60;21.00;;;;;;;;5165782;28;11462;-76
2022/10/13 15:05:24;;;;;;;;;22.80;22.80;;;;;;;;5151467;28;8804;-77
2022/10/13 15:07:55;;;;;;;;;19.75;19.25;;;;;;;;5149366;28;8788;-76
2022/10/13 15:10:44;;;;;;;;;27.80;26.00;;;;;;;;5165019;28;10435;-76
2022/10/13 15:13:15;;;;;;;;;17.60;17.00;;;;;;;;5163739;28;8822;-74
2022/10/13 15:15:47;;;;;;;;;14.80;14.80;;;;;;;;5148520;28;8799;-75
2022/10/13 15:18:18;;;;;;;;;10.60;10.40;;;;;;;;5166428;28;9545;-74
2022/10/13 15:20:51;;;;;;;;;11.00;10.50;;;;;;;;5148849;28;8799;-72